createdAt,value
2018-01-01T00:00:17.995Z,19.87
2018-01-01T00:02:49.880Z,25.53
2018-01-01T00:05:21.760Z,23.03
2018-01-01T00:07:54.398Z,14.70
2018-01-01T00:10:26.313Z,19.20
2018-01-01T00:12:58.175Z,31.70
2018-01-01T00:15:30.081Z,29.23
2018-01-01T00:18:02.404Z,13.50
2018-01-01T00:20:35.043Z,17.53
2018-01-01T00:23:06.976Z,21.13
2018-01-01T00:25:38.882Z,21.87
2018-01-01T00:28:11.539Z,15.47
2018-01-01T00:30:43.419Z,19.40
2018-01-01T00:33:16.058Z,19.77
2018-01-01T00:35:48.018Z,15.23
2018-01-01T00:38:19.859Z,15.07
2018-01-01T00:40:51.759Z,17.47
2018-01-01T00:43:23.646Z,10.57
2018-01-01T00:45:56.307Z,12.03
2018-01-01T00:48:28.179Z,13.40
2018-01-01T00:51:00.834Z,11.80
2018-01-01T00:53:33.467Z,9.53
2018-01-01T00:56:05.422Z,10.97
2018-01-01T00:58:37.290Z,12.10
2018-01-01T01:01:09.239Z,10.80
2018-01-01T01:03:41.107Z,8.53
2018-01-01T01:06:13.003Z,9.47
2018-01-01T01:08:44.871Z,7.30
2018-01-01T01:11:16.787Z,8.47
2018-01-01T01:13:48.730Z,8.77
2018-01-01T01:16:21.491Z,7.87
2018-01-01T01:18:54.143Z,7.97
2018-01-01T01:21:26.020Z,10.93
2018-01-01T01:23:57.907Z,11.57
2018-01-01T01:26:29.794Z,5.27
2018-01-01T01:29:01.658Z,7.40
2018-01-01T01:31:33.543Z,6.27
2018-01-01T01:34:05.417Z,7.07
2018-01-01T01:36:37.347Z,4.67
2018-01-01T01:39:09.214Z,8.57
2018-01-01T01:41:41.112Z,4.30
2018-01-01T01:44:13.918Z,6.30
2018-01-01T01:46:45.807Z,7.77
2018-01-01T01:49:17.691Z,5.13
2018-01-01T01:51:49.595Z,11.20
2018-01-01T01:54:21.498Z,6.33
2018-01-01T01:56:53.423Z,6.90
2018-01-01T01:59:25.307Z,8.93
2018-01-01T02:01:57.202Z,8.20
2018-01-01T02:04:29.399Z,9.03
2018-01-01T02:07:01.328Z,9.53
2018-01-01T02:09:33.190Z,11.50
2018-01-01T02:12:05.116Z,7.53
2018-01-01T02:14:36.978Z,14.23
2018-01-01T02:17:08.859Z,7.53
2018-01-01T02:19:40.731Z,8.03
2018-01-01T02:22:12.623Z,12.10
2018-01-01T02:24:44.499Z,9.50
2018-01-01T02:27:16.413Z,11.27
2018-01-01T02:29:48.303Z,8.93
2018-01-01T02:32:31.890Z,7.80
2018-01-01T02:35:03.769Z,9.20
2018-01-01T02:37:35.676Z,6.73
2018-01-01T02:40:07.539Z,9.43
2018-01-01T02:42:39.431Z,11.23
2018-01-01T02:45:11.311Z,7.70
2018-01-01T02:47:43.198Z,12.03
